createdAt,value
2023-03-17T00:01:01.798Z,1.68
2023-03-17T00:04:04.369Z,1.62
2023-03-17T00:07:06.655Z,1.62
2023-03-17T00:10:14.507Z,1.78
2023-03-17T00:13:16.459Z,1.67
2023-03-17T00:16:23.996Z,1.65
2023-03-17T00:19:30.811Z,1.57
2023-03-17T00:22:32.769Z,1.55
2023-03-17T00:25:36.044Z,1.51
2023-03-17T00:28:38.663Z,1.52
2023-03-17T00:31:43.729Z,1.61
2023-03-17T00:34:45.928Z,1.58
2023-03-17T00:41:11.991Z,1.62
2023-03-17T00:44:13.891Z,1.59
2023-03-17T00:47:17.591Z,1.59
2023-03-17T00:50:22.750Z,1.59
2023-03-17T00:53:24.573Z,1.66
2023-03-17T00:56:26.496Z,1.65
2023-03-17T00:59:32.002Z,1.54
2023-03-17T01:02:35.594Z,1.49
2023-03-17T01:05:38.178Z,1.47
2023-03-17T01:08:41.500Z,1.24
2023-03-17T01:11:43.832Z,1.17
2023-03-17T01:14:45.823Z,1.14
2023-03-17T01:17:49.805Z,1.21
2023-03-17T01:20:54.690Z,1.29
2023-03-17T01:23:57.235Z,1.33
2023-03-17T01:26:59.132Z,1.38
2023-03-17T01:30:01.387Z,1.39
2023-03-17T01:33:05.867Z,1.38
2023-03-17T01:36:09.918Z,1.22
2023-03-17T01:42:35.923Z,1.15
2023-03-17T01:46:16.575Z,1.17
2023-03-17T01:49:32.249Z,1.23
2023-03-17T01:52:38.250Z,1.27
2023-03-17T01:55:41.869Z,1.23
2023-03-17T01:58:49.489Z,1.30
2023-03-17T02:01:54.767Z,1.27
2023-03-17T02:04:59.102Z,1.23
2023-03-17T02:08:01.165Z,1.27
2023-03-17T02:11:05.310Z,1.21
2023-03-17T02:14:07.275Z,1.22
2023-03-17T02:17:10.103Z,1.20
2023-03-17T02:21:05.408Z,1.13
2023-03-17T02:24:16.213Z,1.12
2023-03-17T02:27:22.067Z,1.10
2023-03-17T02:30:24.932Z,1.12
2023-03-17T02:33:29.757Z,1.12
2023-03-17T02:36:31.747Z,1.12
2023-03-17T02:39:35.205Z,1.13
2023-03-17T02:42:38.007Z,1.03
2023-03-17T02:45:39.922Z,1.04
2023-03-17T02:48:42.583Z,1.07
2023-03-17T02:51:44.746Z,1.04
2023-03-17T02:54:48.237Z,0.99
2023-03-17T02:57:50.500Z,1.04
2023-03-17T03:00:52.835Z,1.01
2023-03-17T03:03:55.617Z,0.86
2023-03-17T03:06:57.539Z,0.88
2023-03-17T03:10:00.812Z,0.80
2023-03-17T03:13:02.613Z,0.85
2023-03-17T03:16:05.119Z,0.81
2023-03-17T03:19:08.117Z,0.88
2023-03-17T03:22:10.470Z,0.86
2023-03-17T03:25:13.689Z,0.85
2023-03-17T03:28:15.956Z,0.80
2023-03-17T03:31:17.872Z,0.82
2023-03-17T03:34:20.107Z,0.78
2023-03-17T03:37:22.417Z,0.78
2023-03-17T03:40:26.759Z,0.63
2023-03-17T03:43:28.851Z,0.67
2023-03-17T03:46:31.102Z,0.72
2023-03-17T03:49:33.154Z,0.72
2023-03-17T03:52:35.036Z,0.65
2023-03-17T03:55:38.572Z,0.59
2023-03-17T03:58:41.896Z,0.61
2023-03-17T04:01:44.156Z,0.56
2023-03-17T04:04:46.372Z,0.61
2023-03-17T04:07:50.148Z,0.62
2023-03-17T04:10:53.301Z,0.52
2023-03-17T04:13:55.246Z,0.55
2023-03-17T04:16:57.285Z,0.60
2023-03-17T04:19:59.242Z,0.67
2023-03-17T04:23:01.133Z,0.65
2023-03-17T04:26:05.658Z,0.57
2023-03-17T04:29:07.993Z,0.49
2023-03-17T04:32:11.782Z,0.40
2023-03-17T04:35:14.849Z,0.45
2023-03-17T04:38:17.087Z,0.49
2023-03-17T04:41:20.646Z,0.51
2023-03-17T04:44:23.577Z,0.49
2023-03-17T04:47:25.790Z,0.50
2023-03-17T04:50:29.809Z,0.28
2023-03-17T04:53:31.995Z,0.22
2023-03-17T04:56:35.761Z,0.27
2023-03-17T04:59:38.018Z,0.28
2023-03-17T05:02:40.190Z,0.28
2023-03-17T05:05:42.089Z,0.29
2023-03-17T05:08:45.112Z,0.24
2023-03-17T05:11:48.600Z,0.25
2023-03-17T05:14:50.755Z,0.31
2023-03-17T05:17:52.984Z,0.13
2023-03-17T05:20:55.522Z,0.13
2023-03-17T05:23:58.005Z,0.24
2023-03-17T05:27:02.454Z,0.19
2023-03-17T05:30:05.436Z,0.25
2023-03-17T05:33:07.443Z,0.28
2023-03-17T05:36:09.971Z,0.21
2023-03-17T05:39:14.450Z,0.17
2023-03-17T05:42:18.012Z,0.18
2023-03-17T05:45:19.810Z,0.19
2023-03-17T05:48:21.988Z,0.21
2023-03-17T05:51:24.217Z,0.20
2023-03-17T05:54:26.296Z,0.28
2023-03-17T05:57:29.771Z,0.25
2023-03-17T06:00:32.269Z,0.17
2023-03-17T06:03:34.334Z,0.22
2023-03-17T06:06:36.263Z,0.27
2023-03-17T06:09:38.110Z,0.41
2023-03-17T06:12:42.415Z,0.14
2023-03-17T06:15:44.965Z,0.22
2023-03-17T06:18:46.799Z,0.28
2023-03-17T06:21:48.865Z,0.35
2023-03-17T06:24:52.118Z,0.35
2023-03-17T06:27:55.300Z,0.48
2023-03-17T06:30:57.538Z,0.39
2023-03-17T06:33:59.782Z,0.44
2023-03-17T06:37:02.051Z,0.54
2023-03-17T06:40:06.486Z,0.58
2023-03-17T06:43:09.926Z,0.58
2023-03-17T06:46:11.854Z,0.56
2023-03-17T06:49:14.045Z,0.59
2023-03-17T06:52:16.219Z,0.86
2023-03-17T06:55:18.229Z,0.75
2023-03-17T06:58:21.553Z,0.77
2023-03-17T07:01:23.507Z,0.85
2023-03-17T07:04:27.008Z,0.98
2023-03-17T07:07:28.983Z,1.14
2023-03-17T07:10:30.840Z,1.29
2023-03-17T07:13:34.444Z,1.30
2023-03-17T07:16:36.245Z,1.31
2023-03-17T07:19:38.270Z,1.38
2023-03-17T07:22:40.680Z,1.50
2023-03-17T07:25:42.788Z,1.71
2023-03-17T07:28:46.407Z,1.86
2023-03-17T07:31:48.683Z,1.88
2023-03-17T07:34:50.936Z,1.88
2023-03-17T07:41:17.103Z,2.12
2023-03-17T07:44:20.517Z,2.09
2023-03-17T07:47:22.350Z,2.21
2023-03-17T07:50:24.940Z,2.22
2023-03-17T07:53:26.944Z,2.44
2023-03-17T07:56:29.149Z,2.48
2023-03-17T07:59:33.006Z,2.50
2023-03-17T08:02:35.720Z,2.54
2023-03-17T08:05:37.832Z,2.56
2023-03-17T08:08:40.070Z,2.65
2023-03-17T08:11:42.275Z,2.85
2023-03-17T08:14:45.727Z,2.99
2023-03-17T08:17:47.990Z,3.12
2023-03-17T08:20:50.739Z,3.17
2023-03-17T08:23:53.057Z,3.25
2023-03-17T08:26:54.893Z,3.24
2023-03-17T08:29:58.221Z,3.22
2023-03-17T08:33:00.168Z,3.29
2023-03-17T08:36:06.236Z,3.36
2023-03-17T08:42:33.487Z,3.45
2023-03-17T08:45:39.084Z,3.58
2023-03-17T08:48:41.584Z,3.69
2023-03-17T08:51:44.144Z,3.85
2023-03-17T08:54:46.435Z,4.01
2023-03-17T08:57:48.277Z,4.10
2023-03-17T09:00:52.786Z,4.18
2023-03-17T09:03:55.260Z,4.38
2023-03-17T09:07:03.859Z,4.49
2023-03-17T09:10:08.464Z,4.57
2023-03-17T09:13:11.525Z,4.63
2023-03-17T09:16:15.925Z,4.68
2023-03-17T09:19:18.056Z,4.68
2023-03-17T09:22:20.358Z,4.68
2023-03-17T09:25:22.399Z,4.90
2023-03-17T09:28:24.510Z,5.06
2023-03-17T09:31:27.915Z,5.10
2023-03-17T09:34:30.171Z,5.12
2023-03-17T09:37:33.059Z,5.18
2023-03-17T09:40:40.015Z,5.31
2023-03-17T09:43:50.431Z,5.30
2023-03-17T09:47:06.978Z,5.60
2023-03-17T09:50:15.659Z,5.71
2023-03-17T09:53:20.883Z,5.70
2023-03-17T09:56:24.328Z,5.75
2023-03-17T09:59:31.028Z,5.90
2023-03-17T10:02:37.200Z,5.94
2023-03-17T10:05:41.197Z,5.99
2023-03-17T10:08:51.479Z,6.19
2023-03-17T10:12:02.098Z,6.24
2023-03-17T10:15:11.546Z,6.30
2023-03-17T10:18:17.112Z,6.39
2023-03-17T10:21:22.849Z,6.47
2023-03-17T10:24:27.903Z,6.59
2023-03-17T10:27:34.287Z,6.60
2023-03-17T10:30:36.453Z,6.73
2023-03-17T10:33:39.768Z,6.84
2023-03-17T10:36:43.998Z,6.86
2023-03-17T10:39:47.532Z,6.98
2023-03-17T10:42:54.415Z,6.94
2023-03-17T10:46:00.770Z,7.14
2023-03-17T10:49:08.108Z,7.31
2023-03-17T10:52:27.974Z,7.30
2023-03-17T10:55:32.123Z,7.45
2023-03-17T10:58:38.079Z,7.46
2023-03-17T11:01:44.512Z,7.55
2023-03-17T11:04:47.956Z,7.72
2023-03-17T11:07:50.542Z,7.84
2023-03-17T11:10:55.479Z,7.99
2023-03-17T11:14:02.591Z,7.87
2023-03-17T11:17:21.506Z,7.89
2023-03-17T11:20:41.872Z,7.93
2023-03-17T11:23:50.912Z,8.11
2023-03-17T11:26:58.083Z,8.13
2023-03-17T11:30:23.153Z,8.36
2023-03-17T11:33:37.924Z,8.44
2023-03-17T11:36:50.842Z,8.53
2023-03-17T11:39:58.606Z,8.51
2023-03-17T11:43:18.266Z,8.67
2023-03-17T11:46:25.413Z,8.77
2023-03-17T11:49:34.233Z,8.95
2023-03-17T11:52:50.607Z,9.09
2023-03-17T11:55:57.400Z,8.95
2023-03-17T11:59:02.189Z,9.03
2023-03-17T12:02:19.564Z,9.21
2023-03-17T12:05:25.038Z,9.29
2023-03-17T12:08:37.738Z,9.33
2023-03-17T12:11:43.625Z,9.40
2023-03-17T12:14:50.007Z,9.48
2023-03-17T12:18:00.519Z,9.57
2023-03-17T12:21:10.059Z,9.61
2023-03-17T12:24:19.052Z,9.61
2023-03-17T12:27:25.828Z,9.70
2023-03-17T12:30:33.534Z,9.93
2023-03-17T12:33:42.749Z,9.94
2023-03-17T12:36:45.410Z,9.95
2023-03-17T12:39:56.408Z,10.01
2023-03-17T12:43:18.430Z,9.95
2023-03-17T12:46:50.358Z,9.98
2023-03-17T12:50:19.377Z,10.06
2023-03-17T12:53:28.771Z,10.17
2023-03-17T12:56:35.017Z,10.22
2023-03-17T12:59:37.626Z,10.18
2023-03-17T13:02:40.521Z,10.23
2023-03-17T13:05:46.485Z,10.32
2023-03-17T13:08:50.890Z,10.25
2023-03-17T13:11:55.001Z,10.30
2023-03-17T13:14:58.661Z,10.29
2023-03-17T13:18:52.740Z,10.41
2023-03-17T13:22:31.908Z,10.30
2023-03-17T13:25:36.419Z,10.40
2023-03-17T13:28:45.700Z,10.39
2023-03-17T13:31:48.809Z,10.46
2023-03-17T13:34:52.805Z,10.65
2023-03-17T13:38:11.625Z,10.60
2023-03-17T13:41:47.409Z,10.77
2023-03-17T13:45:11.318Z,10.70
2023-03-17T13:48:32.135Z,10.75
2023-03-17T13:51:34.356Z,10.89
2023-03-17T13:54:43.126Z,10.93
2023-03-17T13:57:54.492Z,10.96
2023-03-17T14:01:05.620Z,11.01
2023-03-17T14:04:17.597Z,10.98
2023-03-17T14:07:24.707Z,11.13
2023-03-17T14:10:30.322Z,11.18
2023-03-17T14:13:42.240Z,11.38
2023-03-17T14:16:59.230Z,11.52
2023-03-17T14:20:04.151Z,11.72
2023-03-17T14:23:06.599Z,11.76
2023-03-17T14:26:11.844Z,11.78
2023-03-17T14:29:15.719Z,11.84
2023-03-17T14:32:21.125Z,11.84
2023-03-17T14:35:22.988Z,11.81
2023-03-17T14:42:02.460Z,11.95
2023-03-17T14:45:08.020Z,12.04
2023-03-17T14:48:14.963Z,12.08
2023-03-17T14:51:26.634Z,12.04
2023-03-17T14:54:34.324Z,12.08
2023-03-17T14:57:37.920Z,12.09
2023-03-17T15:00:46.710Z,12.04
2023-03-17T15:03:57.988Z,12.03
2023-03-17T15:07:02.419Z,12.02
2023-03-17T15:10:06.789Z,12.03
2023-03-17T15:13:12.466Z,11.93
2023-03-17T15:16:22.663Z,11.77
2023-03-17T15:19:30.007Z,11.68
2023-03-17T15:22:39.594Z,11.51
2023-03-17T15:25:45.795Z,11.33
2023-03-17T15:28:47.662Z,11.27
2023-03-17T15:31:49.578Z,11.14
2023-03-17T15:34:55.749Z,11.05
2023-03-17T15:37:58.080Z,11.02
2023-03-17T15:41:05.156Z,10.88
2023-03-17T15:44:07.483Z,10.80
2023-03-17T15:47:14.382Z,10.80
2023-03-17T15:50:21.924Z,10.92
2023-03-17T15:53:24.485Z,10.79
2023-03-17T15:56:29.418Z,10.82
2023-03-17T15:59:31.716Z,10.55
2023-03-17T16:02:34.951Z,10.59
2023-03-17T16:05:38.181Z,10.51
2023-03-17T16:08:40.257Z,10.43
2023-03-17T16:11:42.226Z,10.44
2023-03-17T16:14:44.078Z,10.43
2023-03-17T16:17:47.579Z,10.36
2023-03-17T16:20:52.958Z,10.35
2023-03-17T16:23:56.018Z,10.26
2023-03-17T16:26:58.488Z,10.20
2023-03-17T16:30:00.330Z,10.18
2023-03-17T16:33:09.191Z,10.10
2023-03-17T16:36:16.770Z,10.06
2023-03-17T16:39:23.908Z,10.06
2023-03-17T16:42:26.010Z,10.00
2023-03-17T16:45:30.479Z,9.94
2023-03-17T16:48:33.206Z,9.89
2023-03-17T16:51:36.728Z,9.83
2023-03-17T16:54:39.148Z,9.80
2023-03-17T16:57:45.980Z,9.71
2023-03-17T17:00:50.973Z,9.75
2023-03-17T17:03:53.920Z,9.78
2023-03-17T17:06:57.693Z,9.62
2023-03-17T17:09:59.624Z,9.52
2023-03-17T17:13:02.910Z,9.46
2023-03-17T17:16:06.199Z,9.48
2023-03-17T17:19:15.443Z,9.47
2023-03-17T17:22:19.439Z,9.23
2023-03-17T17:25:22.354Z,9.13
2023-03-17T17:28:25.590Z,9.20
2023-03-17T17:31:28.562Z,9.19
2023-03-17T17:34:30.783Z,9.19
2023-03-17T17:37:39.526Z,9.11
2023-03-17T17:40:41.966Z,9.04
2023-03-17T17:43:44.459Z,9.11
2023-03-17T17:46:48.884Z,9.05
2023-03-17T17:49:52.969Z,8.97
2023-03-17T17:52:58.248Z,8.96
2023-03-17T17:56:03.781Z,8.86
2023-03-17T17:59:06.603Z,8.93
2023-03-17T18:02:11.576Z,8.83
2023-03-17T18:05:14.266Z,8.85
2023-03-17T18:08:17.927Z,8.78
2023-03-17T18:11:20.856Z,8.73
2023-03-17T18:14:24.651Z,8.71
2023-03-17T18:17:27.244Z,8.58
2023-03-17T18:20:31.054Z,8.62
2023-03-17T18:23:37.065Z,8.54
2023-03-17T18:26:40.500Z,8.56
2023-03-17T18:29:44.001Z,8.43
2023-03-17T18:32:50.343Z,8.50
2023-03-17T18:35:53.639Z,8.49
2023-03-17T18:38:58.422Z,8.40
2023-03-17T18:42:01.132Z,8.42
2023-03-17T18:45:04.614Z,8.41
2023-03-17T18:48:07.419Z,8.43
2023-03-17T18:51:14.863Z,8.47
2023-03-17T18:54:21.268Z,8.47
2023-03-17T18:57:27.179Z,8.51
2023-03-17T19:00:31.489Z,8.54
2023-03-17T19:03:35.260Z,8.53
2023-03-17T19:06:41.867Z,8.49
2023-03-17T19:09:52.649Z,8.51
2023-03-17T19:12:58.176Z,8.47
2023-03-17T19:16:02.096Z,8.50
2023-03-17T19:19:09.544Z,8.44
2023-03-17T19:22:14.864Z,8.38
2023-03-17T19:25:20.592Z,8.38
2023-03-17T19:28:24.197Z,8.24
2023-03-17T19:31:27.736Z,8.26
2023-03-17T19:34:31.802Z,8.20
2023-03-17T19:37:35.873Z,8.12
2023-03-17T19:40:40.887Z,8.15
2023-03-17T19:43:43.757Z,8.08
2023-03-17T19:46:48.788Z,8.08
2023-03-17T19:49:51.992Z,8.09
2023-03-17T19:52:56.260Z,7.93
2023-03-17T19:56:02.200Z,7.98
2023-03-17T19:59:09.653Z,7.87
2023-03-17T20:02:17.629Z,7.88
2023-03-17T20:05:22.535Z,7.91
2023-03-17T20:08:26.695Z,7.88
2023-03-17T20:11:31.972Z,7.86
2023-03-17T20:14:36.467Z,7.87
2023-03-17T20:17:39.688Z,7.87
2023-03-17T20:20:46.280Z,7.88
2023-03-17T20:23:51.543Z,7.74
2023-03-17T20:26:58.015Z,7.67
2023-03-17T20:30:03.112Z,7.68
2023-03-17T20:33:07.413Z,7.53
2023-03-17T20:36:11.856Z,7.56
2023-03-17T20:39:16.116Z,7.49
2023-03-17T20:42:22.188Z,7.51
2023-03-17T20:45:24.849Z,7.53
2023-03-17T20:48:31.292Z,7.41
2023-03-17T20:51:36.234Z,7.44
2023-03-17T20:54:39.916Z,7.48
2023-03-17T20:57:45.404Z,7.39
2023-03-17T21:00:52.872Z,7.27
2023-03-17T21:03:55.823Z,7.29
2023-03-17T21:06:59.413Z,7.28
2023-03-17T21:10:02.534Z,7.24
2023-03-17T21:13:06.855Z,7.29
2023-03-17T21:16:16.087Z,7.32
2023-03-17T21:19:18.290Z,7.17
2023-03-17T21:22:20.454Z,7.20
2023-03-17T21:25:23.683Z,7.14
2023-03-17T21:28:27.904Z,7.08
2023-03-17T21:31:31.532Z,6.96
2023-03-17T21:34:35.171Z,6.90
2023-03-17T21:37:37.577Z,6.82
2023-03-17T21:40:39.550Z,6.83
2023-03-17T21:43:44.477Z,6.83
2023-03-17T21:46:49.196Z,6.79
2023-03-17T21:49:51.445Z,6.77
2023-03-17T21:52:54.295Z,6.82
2023-03-17T21:55:56.423Z,6.79
2023-03-17T21:58:59.730Z,6.72
2023-03-17T22:02:03.254Z,6.72
2023-03-17T22:05:06.519Z,6.67
2023-03-17T22:08:08.698Z,6.75
2023-03-17T22:11:15.151Z,6.65
2023-03-17T22:14:20.185Z,6.60
2023-03-17T22:17:22.757Z,6.59
2023-03-17T22:20:25.499Z,6.60
2023-03-17T22:23:29.394Z,6.45
2023-03-17T22:26:32.004Z,6.43
2023-03-17T22:29:36.006Z,6.36
2023-03-17T22:32:38.684Z,6.34
2023-03-17T22:35:41.255Z,6.21
2023-03-17T22:42:08.960Z,6.31
2023-03-17T22:45:13.223Z,6.21
2023-03-17T22:48:15.350Z,6.24
2023-03-17T22:51:19.803Z,6.22
2023-03-17T22:54:23.353Z,6.25
2023-03-17T22:57:25.884Z,6.27
2023-03-17T23:00:30.628Z,6.21
2023-03-17T23:03:33.450Z,6.17
2023-03-17T23:06:36.638Z,6.08
2023-03-17T23:09:39.111Z,6.02
2023-03-17T23:12:41.582Z,5.98
2023-03-17T23:15:45.307Z,5.96
2023-03-17T23:18:49.016Z,5.90
2023-03-17T23:21:51.234Z,5.90
2023-03-17T23:24:53.359Z,5.80
2023-03-17T23:27:55.700Z,5.67
2023-03-17T23:31:01.208Z,5.72
2023-03-17T23:34:03.759Z,5.65
2023-03-17T23:37:06.449Z,5.59
2023-03-17T23:40:10.599Z,5.51
2023-03-17T23:43:13.210Z,5.54
2023-03-17T23:46:19.362Z,5.30
2023-03-17T23:49:21.705Z,4.71
2023-03-17T23:52:23.960Z,4.58
2023-03-17T23:55:27.099Z,4.40
2023-03-17T23:58:30.088Z,4.42
